createdAt,value
2018-06-20T00:00:39.029Z,3.60
2018-06-20T00:03:07.846Z,3.00
2018-06-20T00:05:38.045Z,3.10
2018-06-20T00:08:06.961Z,2.77
2018-06-20T00:10:35.855Z,3.03
2018-06-20T00:13:04.797Z,2.80
2018-06-20T00:15:33.665Z,3.00
2018-06-20T00:18:02.497Z,3.00
2018-06-20T00:20:31.413Z,3.03
2018-06-20T00:23:01.217Z,3.17
2018-06-20T00:25:30.081Z,2.77
2018-06-20T00:27:59.004Z,2.60
2018-06-20T00:30:27.829Z,3.00
2018-06-20T00:32:57.677Z,3.00
2018-06-20T00:35:26.577Z,3.33
2018-06-20T00:37:55.493Z,3.27
2018-06-20T00:40:24.388Z,3.07
2018-06-20T00:42:54.317Z,3.13
2018-06-20T00:45:23.185Z,2.73
2018-06-20T00:47:52.057Z,2.37
2018-06-20T00:50:20.943Z,2.77
2018-06-20T00:52:49.752Z,3.17
2018-06-20T00:55:30.018Z,2.90
2018-06-20T00:57:58.905Z,3.07
2018-06-20T01:00:27.769Z,2.80
2018-06-20T01:02:56.644Z,2.60
2018-06-20T01:05:25.421Z,3.50
2018-06-20T01:07:54.225Z,3.63
2018-06-20T01:10:23.133Z,3.17
2018-06-20T01:12:52.045Z,3.10
2018-06-20T01:15:20.693Z,3.53
2018-06-20T01:17:50.400Z,3.23
2018-06-20T01:20:19.301Z,3.27
2018-06-20T01:22:48.241Z,2.90
2018-06-20T01:25:17.104Z,2.97
2018-06-20T01:27:45.973Z,3.40
2018-06-20T01:30:14.869Z,2.70
2018-06-20T01:32:43.909Z,3.03
2018-06-20T01:35:12.729Z,3.40
2018-06-20T01:37:41.627Z,2.70
2018-06-20T01:40:10.565Z,3.40
2018-06-20T01:42:39.405Z,3.03
2018-06-20T01:45:08.278Z,3.27
2018-06-20T01:47:38.118Z,3.10
2018-06-20T01:50:07.042Z,3.00
2018-06-20T01:52:35.893Z,2.70
2018-06-20T01:55:05.357Z,3.67
2018-06-20T01:57:35.909Z,3.00
2018-06-20T02:00:05.064Z,2.90
2018-06-20T02:02:33.945Z,2.90
2018-06-20T02:05:02.857Z,3.03
2018-06-20T02:07:31.699Z,3.20
2018-06-20T02:10:00.588Z,3.37
2018-06-20T02:12:29.557Z,2.97
2018-06-20T02:14:58.517Z,3.10
2018-06-20T02:17:27.397Z,3.00
2018-06-20T02:19:57.046Z,3.47
2018-06-20T02:22:25.877Z,3.53
2018-06-20T02:24:54.725Z,3.20
2018-06-20T02:27:23.574Z,2.70
2018-06-20T02:29:52.421Z,2.70
2018-06-20T02:32:21.337Z,3.43
2018-06-20T02:34:50.189Z,3.17
2018-06-20T02:37:19.158Z,3.40
2018-06-20T02:39:48.042Z,3.10
2018-06-20T02:42:16.842Z,3.30
2018-06-20T02:44:45.706Z,3.63
2018-06-20T02:47:14.605Z,3.33
2018-06-20T02:49:43.474Z,3.07
2018-06-20T02:52:12.361Z,2.80
2018-06-20T02:54:41.205Z,2.53
2018-06-20T02:57:10.105Z,3.60
2018-06-20T02:59:39.017Z,2.80
2018-06-20T03:02:07.901Z,3.17
2018-06-20T03:04:36.794Z,2.97
2018-06-20T03:07:05.671Z,3.43
2018-06-20T03:09:34.581Z,3.10
2018-06-20T03:12:03.469Z,2.43
2018-06-20T03:14:32.377Z,3.07
2018-06-20T03:17:01.269Z,3.00
2018-06-20T03:19:30.633Z,2.80
2018-06-20T03:21:59.749Z,2.97
2018-06-20T03:24:28.637Z,3.00
2018-06-20T03:26:57.537Z,3.20
2018-06-20T03:29:26.405Z,2.77
2018-06-20T03:31:55.265Z,2.90
2018-06-20T03:34:25.129Z,2.97
2018-06-20T03:36:55.217Z,3.37
2018-06-20T03:39:24.106Z,3.13
2018-06-20T03:41:53.021Z,3.03
2018-06-20T03:44:22.905Z,3.20
2018-06-20T03:46:52.755Z,3.27
2018-06-20T03:49:21.593Z,3.40
2018-06-20T03:51:51.361Z,3.07
2018-06-20T03:54:22.233Z,2.87
2018-06-20T03:56:51.029Z,2.73
2018-06-20T03:59:19.816Z,3.40
2018-06-20T04:01:49.629Z,2.70
2018-06-20T04:04:18.392Z,2.43
2018-06-20T04:06:47.193Z,3.07
2018-06-20T04:09:16.013Z,3.30
2018-06-20T04:11:44.871Z,3.00
2018-06-20T04:14:14.673Z,2.83
2018-06-20T04:16:43.473Z,2.90
2018-06-20T04:19:12.245Z,3.13
2018-06-20T04:21:41.041Z,3.67
2018-06-20T04:24:09.829Z,3.63
2018-06-20T04:26:38.621Z,2.87
2018-06-20T04:29:07.461Z,3.00
2018-06-20T04:31:36.304Z,3.10
2018-06-20T04:34:05.104Z,3.53
2018-06-20T04:36:34.901Z,3.03
2018-06-20T04:39:05.392Z,3.00
2018-06-20T04:41:34.205Z,3.20
2018-06-20T04:44:03.048Z,3.17
2018-06-20T04:46:31.877Z,2.80
2018-06-20T04:49:00.655Z,2.80
2018-06-20T04:51:29.448Z,3.10
2018-06-20T04:53:58.244Z,3.17
2018-06-20T04:56:27.032Z,3.47
2018-06-20T04:58:55.588Z,2.83
2018-06-20T05:01:24.322Z,2.93
2018-06-20T05:03:53.098Z,3.20
2018-06-20T05:06:22.025Z,3.30
2018-06-20T05:08:50.845Z,3.23
2018-06-20T05:11:20.660Z,3.00
2018-06-20T05:13:49.452Z,3.30
2018-06-20T05:16:18.261Z,3.53
2018-06-20T05:18:48.060Z,3.20
2018-06-20T05:21:16.833Z,3.10
2018-06-20T05:23:45.625Z,3.30
2018-06-20T05:26:14.456Z,3.23
2018-06-20T05:28:43.321Z,3.20
2018-06-20T05:31:13.373Z,3.20
2018-06-20T05:33:42.217Z,3.27
2018-06-20T05:36:10.992Z,3.00
2018-06-20T05:38:39.796Z,3.27
2018-06-20T05:41:09.572Z,3.43
2018-06-20T05:43:39.108Z,3.40
2018-06-20T05:46:07.764Z,3.10
2018-06-20T05:48:37.556Z,3.27
2018-06-20T05:51:06.368Z,2.80
2018-06-20T05:53:35.228Z,3.80
2018-06-20T05:56:04.049Z,2.93
2018-06-20T05:58:33.912Z,3.27
2018-06-20T06:01:02.660Z,3.13
2018-06-20T06:03:31.480Z,3.00
2018-06-20T06:06:10.864Z,2.77
2018-06-20T06:08:39.937Z,3.30
2018-06-20T06:11:08.936Z,3.07
2018-06-20T06:13:38.128Z,3.03
2018-06-20T06:16:06.883Z,2.97
2018-06-20T06:18:36.176Z,2.93
2018-06-20T06:21:06.569Z,2.90
2018-06-20T06:23:35.361Z,2.73
2018-06-20T06:26:04.134Z,3.20
2018-06-20T06:28:32.944Z,2.43
2018-06-20T06:31:01.698Z,2.83
2018-06-20T06:33:30.507Z,2.80
2018-06-20T06:35:59.271Z,2.90
2018-06-20T06:38:27.976Z,3.13
2018-06-20T06:40:56.769Z,2.70
2018-06-20T06:43:25.545Z,2.70
2018-06-20T06:45:54.272Z,2.27
2018-06-20T06:48:23.027Z,2.80
2018-06-20T06:50:51.781Z,2.40
2018-06-20T06:53:20.617Z,2.40
2018-06-20T06:55:49.373Z,2.30
2018-06-20T06:58:18.180Z,2.20
2018-06-20T07:00:46.957Z,2.10
2018-06-20T07:03:15.757Z,2.63
2018-06-20T07:05:44.556Z,2.40
2018-06-20T07:08:13.317Z,2.53
2018-06-20T07:10:42.105Z,2.87
2018-06-20T07:13:11.560Z,2.17
2018-06-20T07:15:40.316Z,1.90
2018-06-20T07:18:09.108Z,2.43
2018-06-20T07:20:37.876Z,2.20
2018-06-20T07:23:06.716Z,2.10
2018-06-20T07:25:35.432Z,2.20
2018-06-20T07:28:04.160Z,1.90
2018-06-20T07:30:32.936Z,1.80
2018-06-20T07:33:02.752Z,1.80
2018-06-20T07:35:31.566Z,2.00
2018-06-20T07:41:33.428Z,1.70
2018-06-20T07:44:02.204Z,1.80
2018-06-20T07:46:30.988Z,1.50
2018-06-20T07:48:59.776Z,1.60
2018-06-20T07:51:30.536Z,1.70
2018-06-20T07:54:00.305Z,1.63
2018-06-20T07:56:29.092Z,1.50
2018-06-20T07:58:58.480Z,1.73
2018-06-20T08:01:48.644Z,1.80
2018-06-20T08:04:22.860Z,1.43
2018-06-20T08:06:56.860Z,1.50
2018-06-20T08:09:31.060Z,1.37
2018-06-20T08:13:03.121Z,1.50
2018-06-20T08:15:38.209Z,1.57
2018-06-20T08:18:12.332Z,1.53
2018-06-20T08:20:41.148Z,1.13
2018-06-20T08:23:10.756Z,1.77
2018-06-20T08:25:39.535Z,1.57
2018-06-20T08:28:08.335Z,1.50
2018-06-20T08:30:38.135Z,1.67
2018-06-20T08:33:06.932Z,1.13
2018-06-20T08:35:36.708Z,0.93
2018-06-20T08:38:05.522Z,1.40
2018-06-20T08:40:35.220Z,1.10
2018-06-20T08:43:04.008Z,1.43
2018-06-20T10:08:41.253Z,0.90
2018-06-20T10:11:15.655Z,0.90
2018-06-20T10:13:45.344Z,1.00
2018-06-20T10:16:14.185Z,0.80
2018-06-20T10:18:43.003Z,0.90
2018-06-20T10:21:12.006Z,0.80
2018-06-20T10:23:40.999Z,0.90
2018-06-20T10:26:09.827Z,0.97
2018-06-20T10:28:38.622Z,0.90
2018-06-20T10:31:07.391Z,1.00
2018-06-20T10:33:36.194Z,0.90
2018-06-20T10:36:04.995Z,1.10
2018-06-20T10:38:34.790Z,0.90
2018-06-20T10:41:03.630Z,1.00
2018-06-20T10:43:32.351Z,1.00
2018-06-20T10:46:06.725Z,0.83
2018-06-20T10:48:35.439Z,0.80
2018-06-20T10:51:04.252Z,0.90
2018-06-20T10:53:33.067Z,1.00
2018-06-20T10:56:05.459Z,0.70
2018-06-20T10:58:39.454Z,0.90
2018-06-20T11:01:13.631Z,0.80
2018-06-20T11:03:47.679Z,0.90
2018-06-20T11:06:21.731Z,0.80
2018-06-20T11:08:56.035Z,1.10
2018-06-20T11:11:32.351Z,0.90
2018-06-20T11:14:02.220Z,0.93
2018-06-20T11:16:30.727Z,0.90
2018-06-20T11:18:59.418Z,0.97
2018-06-20T11:21:28.191Z,0.80
2018-06-20T11:23:56.987Z,0.70
2018-06-20T11:26:26.807Z,0.80
2018-06-20T11:28:55.542Z,0.97
2018-06-20T11:31:24.295Z,0.90
2018-06-20T11:33:53.067Z,0.80
2018-06-20T11:36:21.855Z,0.83
2018-06-20T11:38:51.687Z,0.90
2018-06-20T11:41:20.471Z,0.90
2018-06-20T11:43:49.294Z,0.90
2018-06-20T11:46:23.543Z,1.13
2018-06-20T11:48:52.363Z,0.90
2018-06-20T11:51:21.147Z,0.80
2018-06-20T11:53:49.874Z,0.90
2018-06-20T11:56:20.671Z,0.90
2018-06-20T11:58:54.847Z,0.70
2018-06-20T12:01:29.135Z,1.10
2018-06-20T12:04:04.274Z,0.90
2018-06-20T12:06:38.510Z,0.73
2018-06-20T12:09:12.627Z,0.73
2018-06-20T12:11:46.782Z,0.90
2018-06-20T12:14:20.955Z,0.80
2018-06-20T12:16:49.057Z,1.10
2018-06-20T12:19:23.326Z,1.00
2018-06-20T12:21:57.526Z,0.70
2018-06-20T12:24:31.815Z,0.70
2018-06-20T12:27:06.991Z,0.80
2018-06-20T12:29:41.316Z,1.07
2018-06-20T12:32:15.551Z,0.90
2018-06-20T12:34:50.614Z,0.77
2018-06-20T12:37:24.927Z,0.70
2018-06-20T12:39:59.046Z,0.70
2018-06-20T12:43:31.899Z,1.07
2018-06-20T12:46:08.375Z,0.80
2018-06-20T12:48:37.115Z,0.80
2018-06-20T12:51:05.906Z,1.60
2018-06-20T12:53:34.686Z,0.80
2018-06-20T12:56:03.475Z,0.80
2018-06-20T12:58:32.039Z,1.07
2018-06-20T13:01:01.783Z,0.87
2018-06-20T13:03:32.511Z,0.87
2018-06-20T13:06:01.288Z,0.60
2018-06-20T13:08:30.047Z,0.90
2018-06-20T13:10:58.851Z,0.80
2018-06-20T13:13:27.619Z,0.93
2018-06-20T13:15:56.418Z,0.77
2018-06-20T13:18:25.139Z,0.93
2018-06-20T13:20:53.892Z,0.80
2018-06-20T13:23:24.738Z,0.80
2018-06-20T13:25:53.508Z,0.83
2018-06-20T13:28:22.791Z,0.80
2018-06-20T13:31:01.762Z,1.00
2018-06-20T13:33:36.023Z,0.80
2018-06-20T13:36:10.127Z,1.10
2018-06-20T13:38:44.380Z,0.80
2018-06-20T13:41:18.647Z,0.90
2018-06-20T13:43:52.963Z,0.90
2018-06-20T13:46:27.323Z,0.80
2018-06-20T13:48:56.505Z,1.10
2018-06-20T13:51:26.346Z,0.77
2018-06-20T13:53:55.179Z,0.80
2018-06-20T13:56:24.939Z,0.80
2018-06-20T13:58:53.671Z,0.63
2018-06-20T14:01:22.535Z,0.80
2018-06-20T14:03:51.287Z,0.90
2018-06-20T14:06:20.091Z,1.00
2018-06-20T14:08:48.882Z,0.80
2018-06-20T14:11:17.696Z,0.90
2018-06-20T14:13:46.244Z,0.80
2018-06-20T14:16:18.939Z,0.90
2018-06-20T14:18:47.719Z,0.70
2018-06-20T14:21:22.899Z,1.00
2018-06-20T14:23:51.395Z,0.77
2018-06-20T14:26:22.454Z,0.80
2018-06-20T14:28:51.438Z,0.70
2018-06-20T14:31:26.632Z,0.80
2018-06-20T14:34:00.798Z,0.80
2018-06-20T14:36:34.775Z,0.90
2018-06-20T14:39:15.499Z,0.80
2018-06-20T14:41:51.895Z,0.80
2018-06-20T14:44:20.642Z,0.80
2018-06-20T14:46:50.467Z,0.70
2018-06-20T14:49:20.270Z,0.73
2018-06-20T14:51:50.127Z,0.80
2018-06-20T14:54:18.895Z,0.83
2018-06-20T14:56:51.555Z,0.70
2018-06-20T14:59:20.358Z,0.83
2018-06-20T15:01:49.135Z,0.80
2018-06-20T15:04:18.926Z,0.70
2018-06-20T15:06:47.568Z,0.87
2018-06-20T15:09:16.174Z,0.90
2018-06-20T15:11:44.923Z,0.80
2018-06-20T15:14:20.691Z,0.80
2018-06-20T15:16:56.031Z,0.73
2018-06-20T15:19:24.778Z,0.70
2018-06-20T15:21:53.575Z,0.70
2018-06-20T15:24:22.130Z,0.60
2018-06-20T15:26:57.135Z,0.70
2018-06-20T15:29:39.043Z,0.80
2018-06-20T15:32:13.163Z,0.80
2018-06-20T15:34:48.390Z,0.80
2018-06-20T15:37:22.722Z,0.80
2018-06-20T15:39:51.489Z,0.80
2018-06-20T15:42:20.356Z,0.70
2018-06-20T15:44:51.160Z,0.60
2018-06-20T15:47:21.531Z,0.70
2018-06-20T15:49:57.311Z,0.80
2018-06-20T15:52:26.122Z,0.60
2018-06-20T15:54:54.906Z,0.80
2018-06-20T15:57:23.646Z,0.80
2018-06-20T15:59:52.478Z,0.87
2018-06-20T16:02:21.278Z,0.70
2018-06-20T16:04:50.082Z,0.60
2018-06-20T16:07:18.953Z,0.70
2018-06-20T16:09:53.932Z,0.70
2018-06-20T16:12:22.746Z,0.80
2018-06-20T16:14:51.578Z,0.60
2018-06-20T16:17:20.546Z,1.03
2018-06-20T16:19:54.749Z,0.70
2018-06-20T16:22:29.974Z,0.80
2018-06-20T16:25:04.031Z,0.70
2018-06-20T16:27:38.193Z,0.60
2018-06-20T16:30:13.210Z,0.60
2018-06-20T16:32:42.054Z,0.60
2018-06-20T16:35:10.808Z,0.70
2018-06-20T16:37:39.725Z,0.70
2018-06-20T16:40:09.344Z,0.70
2018-06-20T16:42:38.169Z,0.80
2018-06-20T16:45:08.039Z,0.70
2018-06-20T16:47:36.826Z,0.80
2018-06-20T16:50:05.565Z,0.80
2018-06-20T16:52:34.478Z,0.77
2018-06-20T16:55:03.288Z,0.80
2018-06-20T16:57:32.074Z,0.60
2018-06-20T17:00:00.885Z,0.80
2018-06-20T17:02:32.594Z,0.70
2018-06-20T17:05:01.666Z,0.93
2018-06-20T17:07:30.465Z,1.10
2018-06-20T17:10:00.218Z,0.90
2018-06-20T17:12:34.466Z,0.60
2018-06-20T17:15:08.630Z,0.50
2018-06-20T17:17:42.830Z,0.70
2018-06-20T17:20:17.133Z,0.80
2018-06-20T17:22:51.358Z,1.00
2018-06-20T17:25:22.526Z,0.97
2018-06-20T17:27:51.254Z,0.70
2018-06-20T17:30:20.014Z,0.70
2018-06-20T17:32:48.774Z,0.70
2018-06-20T17:35:17.586Z,0.80
2018-06-20T17:37:46.374Z,0.77
2018-06-20T17:40:16.314Z,0.60
2018-06-20T17:42:45.106Z,0.70
2018-06-20T17:45:13.891Z,0.70
2018-06-20T17:47:42.650Z,0.73
2018-06-20T17:50:12.146Z,0.80
2018-06-20T17:52:40.843Z,0.70
2018-06-20T17:55:09.621Z,0.93
2018-06-20T17:57:38.414Z,0.90
2018-06-20T18:00:07.158Z,0.87
2018-06-20T18:02:35.990Z,0.80
2018-06-20T18:05:10.325Z,0.90
2018-06-20T18:07:44.545Z,0.90
2018-06-20T18:10:18.661Z,1.13
2018-06-20T18:12:54.284Z,0.87
2018-06-20T18:15:28.261Z,0.90
2018-06-20T18:17:57.081Z,0.93
2018-06-20T18:20:25.865Z,1.00
2018-06-20T18:22:54.625Z,1.07
2018-06-20T18:25:25.338Z,0.90
2018-06-20T18:27:54.103Z,1.03
2018-06-20T18:30:22.998Z,1.10
2018-06-20T18:32:51.586Z,0.90
2018-06-20T18:35:20.228Z,0.90
2018-06-20T18:37:49.054Z,1.30
2018-06-20T18:40:17.825Z,1.00
2018-06-20T18:42:46.597Z,1.10
2018-06-20T18:45:15.329Z,1.00
2018-06-20T18:47:50.493Z,1.10
2018-06-20T18:50:19.205Z,1.20
2018-06-20T18:52:48.929Z,1.20
2018-06-20T18:55:17.734Z,1.40
2018-06-20T18:57:51.713Z,1.40
2018-06-20T19:00:25.892Z,1.30
2018-06-20T19:03:00.146Z,1.53
2018-06-20T19:05:34.121Z,1.80
2018-06-20T19:08:08.389Z,1.50
2018-06-20T19:10:37.149Z,1.53
2018-06-20T19:13:06.969Z,1.50
2018-06-20T19:15:35.701Z,1.70
2018-06-20T19:18:04.519Z,1.47
2018-06-20T19:20:33.337Z,1.53
2018-06-20T19:23:02.124Z,1.63
2018-06-20T19:25:30.953Z,1.53
2018-06-20T19:27:59.713Z,1.50
2018-06-20T19:30:28.485Z,1.50
2018-06-20T19:32:57.281Z,1.67
2018-06-20T19:35:26.050Z,1.63
2018-06-20T19:37:55.873Z,1.70
2018-06-20T19:40:24.617Z,1.57
2018-06-20T19:42:53.437Z,1.83
2018-06-20T19:45:22.262Z,1.53
2018-06-20T19:47:51.021Z,1.60
2018-06-20T19:50:19.813Z,1.40
2018-06-20T19:52:48.601Z,1.70
2018-06-20T19:55:17.565Z,1.70
2018-06-20T19:57:46.378Z,1.57
2018-06-20T20:00:19.218Z,1.70
2018-06-20T20:02:48.046Z,2.00
2018-06-20T20:05:16.838Z,2.00
2018-06-20T20:07:45.622Z,2.20
2018-06-20T20:10:14.433Z,1.90
2018-06-20T20:12:43.313Z,1.80
2018-06-20T20:15:12.089Z,1.90
2018-06-20T20:17:40.895Z,1.90
2018-06-20T20:20:09.695Z,1.70
2018-06-20T20:22:38.482Z,2.00
2018-06-20T20:25:07.237Z,2.30
2018-06-20T20:27:36.038Z,2.00
2018-06-20T20:30:05.077Z,2.07
2018-06-20T20:32:33.916Z,2.00
2018-06-20T20:35:02.685Z,2.10
2018-06-20T20:37:31.493Z,2.07
2018-06-20T20:40:00.273Z,1.90
2018-06-20T20:42:29.053Z,2.10
2018-06-20T20:44:57.853Z,2.40
2018-06-20T20:47:26.634Z,2.30
2018-06-20T20:49:55.418Z,2.10
2018-06-20T20:52:24.222Z,2.30
2018-06-20T20:54:53.000Z,1.73
2018-06-20T20:57:21.821Z,1.90
2018-06-20T20:59:50.566Z,2.00
2018-06-20T21:02:19.409Z,2.00
2018-06-20T21:04:47.949Z,1.97
2018-06-20T21:07:16.777Z,2.43
2018-06-20T21:09:45.546Z,2.43
2018-06-20T21:12:15.018Z,2.37
2018-06-20T21:14:43.818Z,2.57
2018-06-20T21:17:12.591Z,1.77
2018-06-20T21:19:41.385Z,1.97
2018-06-20T21:22:10.166Z,1.90
2018-06-20T21:24:39.075Z,2.37
2018-06-20T21:27:07.970Z,2.57
2018-06-20T21:29:36.811Z,2.60
2018-06-20T21:32:06.690Z,2.40
2018-06-20T21:34:35.601Z,2.53
2018-06-20T21:37:05.474Z,2.00
2018-06-20T21:39:34.429Z,2.50
2018-06-20T21:42:03.257Z,2.73
2018-06-20T21:44:32.477Z,2.00
2018-06-20T21:47:01.355Z,1.90
2018-06-20T21:49:30.309Z,2.10
2018-06-20T21:51:59.110Z,2.33
2018-06-20T21:54:28.083Z,2.60
2018-06-20T21:56:57.829Z,2.07
2018-06-20T21:59:26.613Z,2.07
2018-06-20T22:01:55.525Z,2.23
2018-06-20T22:04:25.353Z,2.07
2018-06-20T22:06:54.265Z,2.60
2018-06-20T22:09:23.188Z,3.10
2018-06-20T22:11:52.073Z,2.67
2018-06-20T22:14:20.898Z,2.63
2018-06-20T22:16:49.785Z,2.73
2018-06-20T22:19:19.581Z,2.37
2018-06-20T22:21:49.501Z,2.43
2018-06-20T22:24:18.385Z,2.43
2018-06-20T22:26:47.168Z,2.80
2018-06-20T22:29:16.057Z,3.13
2018-06-20T22:31:44.888Z,2.70
2018-06-20T22:34:13.797Z,2.87
2018-06-20T22:36:42.681Z,2.97
2018-06-20T22:39:11.572Z,2.90
2018-06-20T22:41:40.502Z,2.63
2018-06-20T22:44:09.325Z,3.13
2018-06-20T22:46:38.096Z,3.00
2018-06-20T22:49:07.393Z,3.33
2018-06-20T22:51:36.320Z,3.10
2018-06-20T22:54:05.201Z,3.00
2018-06-20T22:56:34.012Z,2.93
2018-06-20T22:59:02.828Z,2.60
2018-06-20T23:01:31.633Z,2.90
2018-06-20T23:04:00.393Z,3.40
2018-06-20T23:06:31.276Z,3.00
2018-06-20T23:09:00.496Z,2.83
2018-06-20T23:11:33.556Z,3.20
2018-06-20T23:14:02.341Z,3.07
2018-06-20T23:16:31.108Z,2.97
2018-06-20T23:18:59.892Z,3.10
2018-06-20T23:21:28.692Z,2.87
2018-06-20T23:23:57.468Z,3.30
2018-06-20T23:26:26.298Z,3.20
2018-06-20T23:28:54.852Z,3.00
2018-06-20T23:31:23.556Z,3.27
2018-06-20T23:33:52.424Z,3.13
2018-06-20T23:36:21.092Z,2.97
2018-06-20T23:38:49.916Z,3.30
2018-06-20T23:41:18.688Z,2.80
2018-06-20T23:43:47.468Z,3.60
2018-06-20T23:46:16.252Z,3.00
2018-06-20T23:48:45.052Z,3.00
2018-06-20T23:51:13.818Z,3.37
2018-06-20T23:53:44.580Z,3.57
2018-06-20T23:56:13.339Z,2.90
2018-06-20T23:58:42.176Z,3.30
